PWSweather.com
Personal Weather Stations
Station Observations
IMAZOWIE6
WarszawaPL

WarszawaPL

Lat: 52.27957, Lon: 21.05489

Elevation: 100

Station Type: WS1080

http://stacjapogody.waw.pl/

High Low Average
Temperature 36.3°F2.4°C 33.3°F0.7°C 34.5°F1.4°C
Dew Point 20.6°F-6.3°C 14.6°F-9.7°C 17.8°F-7.9°C
Winds 5.4 mph 8.7 kmh Calm Calm 1.0 mph N1.6 kmh N
Wind Gusts 9.6 mph15.4 kmh -- 2.0 mph3.2 kmh
Humidity 53% 44% 50%
Pressure 29.36 in994.2 mb 28.73 in972.9 mb -
Precipitation 0.00 in0.0 mm - -
Hour Temp Dew Point Humidity Winds Wind Gusts Pressure Precip Precip Rate Daily Precip Total
12:02 AM 34.5°F1.4°C 14.6°F-9.7°C 44% 3.4 mph N5.5 kmh N 6.2 mph10.0 kmh 28.73 in972.9 mb 0.00 in0.0 mm 0.00 in0.0 mm 0.00 in0.0 mm
12:17 AM 34.5°F1.4°C 15.2°F-9.3°C 45% 4.0 mph N6.4 kmh N 8.2 mph13.2 kmh 28.73 in972.9 mb 0.01 in0.3 mm 0.05 in1.3 mm 0.01 in0.3 mm
12:32 AM 34.7°F1.5°C 15.3°F-9.3°C 45% 2.8 mph N4.5 kmh N 5.4 mph8.7 kmh 28.73 in972.9 mb 0.02 in0.5 mm 0.05 in1.3 mm 0.02 in0.5 mm
12:47 AM 34.9°F1.6°C 16.0°F-8.9°C 46% 2.8 mph N4.5 kmh N 5.4 mph8.7 kmh 28.73 in972.9 mb 0.04 in1.0 mm 0.05 in1.3 mm 0.04 in1.0 mm
01:02 AM 34.7°F1.5°C 15.8°F-9.0°C 46% 1.4 mph N2.3 kmh N 4.0 mph6.4 kmh 28.73 in972.9 mb 0.04 in1.0 mm 0.00 in0.0 mm 0.04 in1.0 mm
01:17 AM 34.5°F1.4°C 15.7°F-9.1°C 46% 4.0 mph N6.4 kmh N 5.4 mph8.7 kmh 28.74 in973.2 mb 0.01 in0.3 mm 0.00 in0.0 mm 0.04 in1.0 mm
01:32 AM 34.3°F1.3°C 15.5°F-9.2°C 46% 2.0 mph N3.2 kmh N 5.4 mph8.7 kmh 28.74 in973.2 mb 0.01 in0.3 mm 0.00 in0.0 mm 0.04 in1.0 mm
01:47 AM 34.2°F1.2°C 15.3°F-9.3°C 46% 2.8 mph N4.5 kmh N 4.8 mph7.7 kmh 28.74 in973.2 mb 0.01 in0.3 mm 0.00 in0.0 mm 0.04 in1.0 mm
02:02 AM 34.2°F1.2°C 15.3°F-9.3°C 46% 5.4 mph N8.7 kmh N 9.6 mph15.4 kmh 28.74 in973.2 mb 0.02 in0.5 mm 0.02 in0.5 mm 0.05 in1.3 mm
02:17 AM 34.2°F1.2°C 15.3°F-9.3°C 46% 2.8 mph N4.5 kmh N 6.8 mph10.9 kmh 28.75 in973.6 mb 0.00 in0.0 mm 0.00 in0.0 mm 0.05 in1.3 mm
02:32 AM 34.3°F1.3°C 16.0°F-8.9°C 47% 1.4 mph N2.3 kmh N 3.4 mph5.5 kmh 28.76 in973.9 mb 0.00 in0.0 mm 0.00 in0.0 mm 0.05 in1.3 mm
02:47 AM 34.2°F1.2°C 15.8°F-9.0°C 47% 2.0 mph N3.2 kmh N 4.0 mph6.4 kmh 28.75 in973.6 mb 0.01 in0.3 mm 0.05 in1.3 mm 0.06 in1.5 mm
03:02 AM 34.2°F1.2°C 15.8°F-9.0°C 47% 1.4 mph N2.3 kmh N 4.8 mph7.7 kmh 28.76 in973.9 mb 0.01 in0.3 mm 0.00 in0.0 mm 0.06 in1.5 mm
03:17 AM 34.2°F1.2°C 15.8°F-9.0°C 47% 1.4 mph N2.3 kmh N 5.4 mph8.7 kmh 28.76 in973.9 mb 0.00 in0.0 mm 0.00 in0.0 mm 0.06 in1.5 mm
03:32 AM 34.2°F1.2°C 15.8°F-9.0°C 47% 3.4 mph N5.5 kmh N 6.2 mph10.0 kmh 28.76 in973.9 mb 0.00 in0.0 mm 0.00 in0.0 mm 0.06 in1.5 mm
03:47 AM 34.0°F1.1°C 15.7°F-9.1°C 47% 2.0 mph N3.2 kmh N 3.4 mph5.5 kmh 28.76 in973.9 mb 0.00 in0.0 mm 0.00 in0.0 mm 0.06 in1.5 mm
04:02 AM 34.3°F1.3°C 16.0°F-8.9°C 47% 2.0 mph N3.2 kmh N 4.0 mph6.4 kmh 28.77 in974.3 mb 0.00 in0.0 mm 0.00 in0.0 mm 0.06 in1.5 mm
04:17 AM 34.2°F1.2°C 16.3°F-8.7°C 48% 2.8 mph N4.5 kmh N 4.0 mph6.4 kmh 28.77 in974.3 mb 0.00 in0.0 mm 0.00 in0.0 mm 0.06 in1.5 mm
04:32 AM 34.2°F1.2°C 16.3°F-8.7°C 48% 1.4 mph N2.3 kmh N 4.0 mph6.4 kmh 28.77 in974.3 mb 0.01 in0.3 mm 0.05 in1.3 mm 0.07 in1.8 mm
04:47 AM 34.2°F1.2°C 16.3°F-8.7°C 48% 1.4 mph N2.3 kmh N 3.4 mph5.5 kmh 28.78 in974.6 mb 0.01 in0.3 mm 0.00 in0.0 mm 0.07 in1.8 mm
05:02 AM 34.2°F1.2°C 16.3°F-8.7°C 48% 1.4 mph N2.3 kmh N 3.4 mph5.5 kmh 28.79 in974.9 mb 0.01 in0.3 mm 0.00 in0.0 mm 0.07 in1.8 mm
05:17 AM 34.3°F1.3°C 16.5°F-8.6°C 48% 1.4 mph N2.3 kmh N 3.4 mph5.5 kmh 28.80 in975.3 mb 0.00 in0.0 mm 0.00 in0.0 mm 0.07 in1.8 mm
05:32 AM 34.2°F1.2°C 16.3°F-8.7°C 48% Calm Calm 2.0 mph3.2 kmh 28.81 in975.6 mb 0.00 in0.0 mm 0.00 in0.0 mm 0.07 in1.8 mm
05:47 AM 34.2°F1.2°C 16.8°F-8.4°C 49% Calm Calm 4.0 mph6.4 kmh 28.81 in975.6 mb 0.00 in0.0 mm 0.00 in0.0 mm 0.07 in1.8 mm
06:02 AM 34.3°F1.3°C 17.0°F-8.3°C 49% 0.6 mph N1.0 kmh N 2.8 mph4.5 kmh 28.82 in976.0 mb 0.00 in0.0 mm 0.00 in0.0 mm 0.07 in1.8 mm
06:17 AM 34.2°F1.2°C 16.8°F-8.4°C 49% Calm Calm -- 28.82 in976.0 mb 0.00 in0.0 mm 0.00 in0.0 mm 0.07 in1.8 mm
06:32 AM 34.2°F1.2°C 16.8°F-8.4°C 49% 1.4 mph N2.3 kmh N 4.0 mph6.4 kmh 28.84 in976.6 mb 0.00 in0.0 mm 0.00 in0.0 mm 0.07 in1.8 mm
06:47 AM 34.2°F1.2°C 16.8°F-8.4°C 49% 1.4 mph N2.3 kmh N 3.4 mph5.5 kmh 28.85 in977.0 mb 0.00 in0.0 mm 0.00 in0.0 mm 0.07 in1.8 mm
07:02 AM 33.8°F1.0°C 16.5°F-8.6°C 49% 0.6 mph N1.0 kmh N 4.0 mph6.4 kmh 28.86 in977.3 mb 0.00 in0.0 mm 0.00 in0.0 mm 0.07 in1.8 mm
07:17 AM 34.0°F1.1°C 16.6°F-8.6°C 49% Calm Calm 2.0 mph3.2 kmh 28.87 in977.7 mb 0.00 in0.0 mm 0.00 in0.0 mm 0.07 in1.8 mm
07:32 AM 33.8°F1.0°C 16.5°F-8.6°C 49% Calm Calm 2.0 mph3.2 kmh 28.88 in978.0 mb 0.00 in0.0 mm 0.00 in0.0 mm 0.07 in1.8 mm
07:47 AM 33.4°F0.8°C 16.6°F-8.6°C 50% Calm Calm 3.4 mph5.5 kmh 28.90 in978.7 mb 0.00 in0.0 mm 0.00 in0.0 mm 0.07 in1.8 mm
08:02 AM 33.6°F0.9°C 16.8°F-8.4°C 50% Calm Calm 1.4 mph2.3 kmh 28.91 in979.0 mb 0.00 in0.0 mm 0.00 in0.0 mm 0.07 in1.8 mm
08:17 AM 33.4°F0.8°C 16.6°F-8.6°C 50% Calm Calm 2.8 mph4.5 kmh 28.93 in979.7 mb 0.00 in0.0 mm 0.00 in0.0 mm 0.07 in1.8 mm
08:32 AM 33.4°F0.8°C 16.6°F-8.6°C 50% Calm Calm 4.0 mph6.4 kmh 28.94 in980.0 mb 0.00 in0.0 mm 0.00 in0.0 mm 0.07 in1.8 mm
08:47 AM 33.3°F0.7°C 16.4°F-8.7°C 50% Calm Calm 0.6 mph1.0 kmh 28.95 in980.4 mb 0.00 in0.0 mm 0.00 in0.0 mm 0.07 in1.8 mm
09:02 AM 33.4°F0.8°C 16.6°F-8.6°C 50% Calm Calm 0.6 mph1.0 kmh 28.97 in981.0 mb 0.00 in0.0 mm 0.00 in0.0 mm 0.07 in1.8 mm
09:17 AM 33.3°F0.7°C 16.4°F-8.7°C 50% Calm Calm 0.6 mph1.0 kmh 28.98 in981.4 mb 0.01 in0.3 mm 0.05 in1.3 mm 0.09 in2.3 mm
09:32 AM 33.4°F0.8°C 16.6°F-8.6°C 50% Calm Calm 0.6 mph1.0 kmh 28.99 in981.7 mb 0.01 in0.3 mm 0.00 in0.0 mm 0.09 in2.3 mm
09:47 AM 33.4°F0.8°C 17.1°F-8.3°C 51% Calm Calm 0.6 mph1.0 kmh 29.00 in982.1 mb 0.01 in0.3 mm 0.00 in0.0 mm 0.09 in2.3 mm
10:02 AM 33.3°F0.7°C 16.9°F-8.4°C 51% Calm Calm 1.4 mph2.3 kmh 29.02 in982.7 mb 0.01 in0.3 mm 0.00 in0.0 mm 0.09 in2.3 mm
10:17 AM 33.3°F0.7°C 16.9°F-8.4°C 51% Calm Calm -- 29.03 in983.1 mb 0.00 in0.0 mm 0.00 in0.0 mm 0.09 in2.3 mm
10:32 AM 33.4°F0.8°C 17.1°F-8.3°C 51% Calm Calm 0.6 mph1.0 kmh 29.04 in983.4 mb 0.00 in0.0 mm 0.00 in0.0 mm 0.09 in2.3 mm
10:47 AM 33.4°F0.8°C 17.1°F-8.3°C 51% Calm Calm 0.6 mph1.0 kmh 29.06 in984.1 mb 0.00 in0.0 mm 0.00 in0.0 mm 0.09 in2.3 mm
11:02 AM 33.4°F0.8°C 17.1°F-8.3°C 51% Calm Calm 2.8 mph4.5 kmh 29.07 in984.4 mb 0.00 in0.0 mm 0.00 in0.0 mm 0.09 in2.3 mm
11:17 AM 33.6°F0.9°C 17.7°F-7.9°C 52% Calm Calm 1.4 mph2.3 kmh 29.08 in984.8 mb 0.00 in0.0 mm 0.00 in0.0 mm 0.09 in2.3 mm
11:32 AM 33.6°F0.9°C 17.7°F-7.9°C 52% Calm Calm 0.6 mph1.0 kmh 29.08 in984.8 mb 0.00 in0.0 mm 0.00 in0.0 mm 0.09 in2.3 mm
11:47 AM 33.8°F1.0°C 17.8°F-7.9°C 52% Calm Calm 2.0 mph3.2 kmh 29.09 in985.1 mb 0.00 in0.0 mm 0.00 in0.0 mm 0.09 in2.3 mm
12:02 PM 33.8°F1.0°C 17.8°F-7.9°C 52% Calm Calm 0.6 mph1.0 kmh 29.10 in985.4 mb 0.00 in0.0 mm 0.00 in0.0 mm 0.09 in2.3 mm
12:17 PM 34.2°F1.2°C 18.6°F-7.4°C 53% Calm Calm 0.6 mph1.0 kmh 29.10 in985.4 mb 0.00 in0.0 mm 0.00 in0.0 mm 0.09 in2.3 mm
12:32 PM 34.5°F1.4°C 19.0°F-7.2°C 53% Calm Calm 0.6 mph1.0 kmh 29.11 in985.8 mb 0.00 in0.0 mm 0.00 in0.0 mm 0.09 in2.3 mm
12:47 PM 34.7°F1.5°C 19.1°F-7.2°C 53% Calm Calm 0.6 mph1.0 kmh 29.12 in986.1 mb 0.00 in0.0 mm 0.00 in0.0 mm 0.09 in2.3 mm
01:02 PM 34.7°F1.5°C 19.1°F-7.2°C 53% Calm Calm 0.6 mph1.0 kmh 29.12 in986.1 mb 0.00 in0.0 mm 0.00 in0.0 mm 0.09 in2.3 mm
01:17 PM 35.4°F1.9°C 19.8°F-6.8°C 53% Calm Calm 1.4 mph2.3 kmh 29.14 in986.8 mb 0.00 in0.0 mm 0.00 in0.0 mm 0.09 in2.3 mm
01:32 PM 36.0°F2.2°C 20.3°F-6.5°C 53% 0.6 mph N1.0 kmh N 2.8 mph4.5 kmh 29.15 in987.1 mb 0.01 in0.3 mm 0.05 in1.3 mm 0.10 in2.5 mm
01:47 PM 36.0°F2.2°C 20.3°F-6.5°C 53% Calm Calm 0.6 mph1.0 kmh 29.16 in987.5 mb 0.01 in0.3 mm 0.00 in0.0 mm 0.10 in2.5 mm
02:02 PM 36.1°F2.3°C 20.5°F-6.4°C 53% Calm Calm 2.8 mph4.5 kmh 29.17 in987.8 mb 0.01 in0.3 mm 0.00 in0.0 mm 0.10 in2.5 mm
02:17 PM 36.3°F2.4°C 20.6°F-6.3°C 53% Calm Calm 0.6 mph1.0 kmh 29.18 in988.1 mb 0.00 in0.0 mm 0.00 in0.0 mm 0.10 in2.5 mm
02:32 PM 36.0°F2.2°C 20.3°F-6.5°C 53% Calm Calm -- 29.19 in988.5 mb 0.01 in0.3 mm 0.05 in1.3 mm 0.11 in2.8 mm
02:47 PM 36.0°F2.2°C 20.3°F-6.5°C 53% Calm Calm 0.6 mph1.0 kmh 29.19 in988.5 mb 0.01 in0.3 mm 0.00 in0.0 mm 0.11 in2.8 mm
03:02 PM 35.6°F2.0°C 20.0°F-6.7°C 53% Calm Calm 1.4 mph2.3 kmh 29.20 in988.8 mb 0.01 in0.3 mm 0.00 in0.0 mm 0.11 in2.8 mm
03:17 PM 35.4°F1.9°C 19.8°F-6.8°C 53% Calm Calm 2.0 mph3.2 kmh 29.21 in989.2 mb 0.00 in0.0 mm 0.00 in0.0 mm 0.11 in2.8 mm
03:32 PM 35.2°F1.8°C 19.6°F-6.9°C 53% Calm Calm 0.6 mph1.0 kmh 29.22 in989.5 mb 0.00 in0.0 mm 0.00 in0.0 mm 0.11 in2.8 mm
03:47 PM 35.2°F1.8°C 19.6°F-6.9°C 53% Calm Calm 1.4 mph2.3 kmh 29.23 in989.8 mb 0.00 in0.0 mm 0.00 in0.0 mm 0.11 in2.8 mm
04:02 PM 35.1°F1.7°C 19.5°F-6.9°C 53% Calm Calm -- 29.24 in990.2 mb 0.00 in0.0 mm 0.00 in0.0 mm 0.11 in2.8 mm
04:17 PM 35.1°F1.7°C 19.5°F-6.9°C 53% Calm Calm 0.6 mph1.0 kmh 29.24 in990.2 mb 0.00 in0.0 mm 0.00 in0.0 mm 0.11 in2.8 mm
04:32 PM 35.2°F1.8°C 19.6°F-6.9°C 53% Calm Calm 0.6 mph1.0 kmh 29.25 in990.5 mb 0.00 in0.0 mm 0.00 in0.0 mm 0.11 in2.8 mm
04:47 PM 35.1°F1.7°C 19.5°F-6.9°C 53% Calm Calm 3.4 mph5.5 kmh 29.25 in990.5 mb 0.00 in0.0 mm 0.00 in0.0 mm 0.11 in2.8 mm
05:02 PM 35.1°F1.7°C 19.5°F-6.9°C 53% Calm Calm 2.0 mph3.2 kmh 29.25 in990.5 mb 0.00 in0.0 mm 0.00 in0.0 mm 0.11 in2.8 mm
05:17 PM 35.1°F1.7°C 19.5°F-6.9°C 53% Calm Calm 1.4 mph2.3 kmh 29.26 in990.9 mb 0.00 in0.0 mm 0.00 in0.0 mm 0.11 in2.8 mm
05:32 PM 35.2°F1.8°C 19.6°F-6.9°C 53% Calm Calm 0.6 mph1.0 kmh 29.26 in990.9 mb 0.00 in0.0 mm 0.00 in0.0 mm 0.11 in2.8 mm
05:47 PM 34.9°F1.6°C 19.3°F-7.1°C 53% Calm Calm 0.6 mph1.0 kmh 29.27 in991.2 mb 0.00 in0.0 mm 0.00 in0.0 mm 0.11 in2.8 mm
06:02 PM 35.1°F1.7°C 19.0°F-7.2°C 52% Calm Calm 0.6 mph1.0 kmh 29.27 in991.2 mb 0.00 in0.0 mm 0.00 in0.0 mm 0.11 in2.8 mm
06:17 PM 35.1°F1.7°C 19.0°F-7.2°C 52% Calm Calm -- 29.28 in991.5 mb 0.00 in0.0 mm 0.00 in0.0 mm 0.11 in2.8 mm
06:32 PM 35.1°F1.7°C 19.0°F-7.2°C 52% Calm Calm 1.4 mph2.3 kmh 29.28 in991.5 mb 0.00 in0.0 mm 0.00 in0.0 mm 0.11 in2.8 mm
06:47 PM 34.9°F1.6°C 18.9°F-7.3°C 52% Calm Calm 0.6 mph1.0 kmh 29.29 in991.9 mb 0.00 in0.0 mm 0.00 in0.0 mm 0.11 in2.8 mm
07:02 PM 34.9°F1.6°C 18.9°F-7.3°C 52% Calm Calm 0.6 mph1.0 kmh 29.29 in991.9 mb 0.00 in0.0 mm 0.00 in0.0 mm 0.11 in2.8 mm
07:17 PM 34.9°F1.6°C 18.9°F-7.3°C 52% Calm Calm 2.0 mph3.2 kmh 29.29 in991.9 mb 0.00 in0.0 mm 0.00 in0.0 mm 0.11 in2.8 mm
07:32 PM 35.1°F1.7°C 19.0°F-7.2°C 52% Calm Calm 0.6 mph1.0 kmh 29.30 in992.2 mb 0.00 in0.0 mm 0.00 in0.0 mm 0.11 in2.8 mm
07:47 PM 34.9°F1.6°C 18.9°F-7.3°C 52% Calm Calm 1.4 mph2.3 kmh 29.30 in992.2 mb 0.00 in0.0 mm 0.00 in0.0 mm 0.11 in2.8 mm
08:02 PM 35.1°F1.7°C 19.0°F-7.2°C 52% Calm Calm 2.8 mph4.5 kmh 29.31 in992.6 mb 0.00 in0.0 mm 0.00 in0.0 mm 0.11 in2.8 mm
08:17 PM 35.1°F1.7°C 19.0°F-7.2°C 52% Calm Calm 0.6 mph1.0 kmh 29.31 in992.6 mb 0.00 in0.0 mm 0.00 in0.0 mm 0.11 in2.8 mm
08:32 PM 35.1°F1.7°C 19.0°F-7.2°C 52% Calm Calm 2.0 mph3.2 kmh 29.31 in992.6 mb 0.00 in0.0 mm 0.00 in0.0 mm 0.11 in2.8 mm
08:47 PM 35.1°F1.7°C 19.0°F-7.2°C 52% Calm Calm 4.0 mph6.4 kmh 29.31 in992.6 mb 0.00 in0.0 mm 0.00 in0.0 mm 0.11 in2.8 mm
09:02 PM 34.9°F1.6°C 18.9°F-7.3°C 52% Calm Calm 3.4 mph5.5 kmh 29.31 in992.6 mb 0.00 in0.0 mm 0.00 in0.0 mm 0.11 in2.8 mm
09:17 PM 34.7°F1.5°C 18.7°F-7.4°C 52% Calm Calm -- 29.32 in992.9 mb 0.00 in0.0 mm 0.00 in0.0 mm 0.11 in2.8 mm
09:32 PM 34.9°F1.6°C 18.4°F-7.6°C 51% Calm Calm -- 29.32 in992.9 mb 0.00 in0.0 mm 0.00 in0.0 mm 0.11 in2.8 mm
09:47 PM 34.9°F1.6°C 18.9°F-7.3°C 52% Calm Calm 0.6 mph1.0 kmh 29.33 in993.2 mb 0.00 in0.0 mm 0.00 in0.0 mm 0.11 in2.8 mm
10:00 PM 34.9°F1.6°C 18.9°F-7.3°C 52% Calm Calm 0.6 mph1.0 kmh 29.33 in993.2 mb 0.00 in0.0 mm 0.00 in0.0 mm 0.11 in2.8 mm
10:17 PM 35.1°F1.7°C 18.6°F-7.4°C 51% Calm Calm 0.6 mph1.0 kmh 29.34 in993.6 mb 0.00 in0.0 mm 0.00 in0.0 mm 0.11 in2.8 mm
10:32 PM 34.9°F1.6°C 18.4°F-7.6°C 51% Calm Calm 1.4 mph2.3 kmh 29.35 in993.9 mb 0.00 in0.0 mm 0.00 in0.0 mm 0.11 in2.8 mm
10:47 PM 34.9°F1.6°C 18.4°F-7.6°C 51% Calm Calm 1.4 mph2.3 kmh 29.34 in993.6 mb 0.00 in0.0 mm 0.00 in0.0 mm 0.11 in2.8 mm
11:02 PM 34.9°F1.6°C 18.4°F-7.6°C 51% Calm Calm 2.0 mph3.2 kmh 29.35 in993.9 mb 0.00 in0.0 mm 0.00 in0.0 mm 0.11 in2.8 mm
11:17 PM 34.7°F1.5°C 18.2°F-7.7°C 51% Calm Calm 0.6 mph1.0 kmh 29.36 in994.2 mb 0.00 in0.0 mm 0.00 in0.0 mm 0.11 in2.8 mm
11:32 PM 34.7°F1.5°C 18.2°F-7.7°C 51% Calm Calm 0.6 mph1.0 kmh 29.36 in994.2 mb 0.00 in0.0 mm 0.00 in0.0 mm 0.11 in2.8 mm
11:47 PM 34.9°F1.6°C 18.4°F-7.6°C 51% Calm Calm -- 29.36 in994.2 mb 0.00 in0.0 mm 0.00 in0.0 mm 0.11 in2.8 mm